Time;durP1;ratioP1;P1;durP2;ratioP2;P2;SDS_P1;SDS_P2;PMS_P1;PMS_P2;Temp;Humidity;BMP_temperature;BMP_pressure;BME280_temperature;BME280_humidity;BME280_pressure;Samples;Min_cycle;Max_cycle;Signal;HPM_P1;HPM_P2
2022/07/21 00:00:42;;;;;;;13.18;9.95;;;19.00;99.90;;;;;;5074438;28;20158;-63
2022/07/21 00:03:07;;;;;;;14.07;9.40;;;19.10;99.90;;;;;;5074541;28;20029;-65
2022/07/21 00:05:34;;;;;;;12.75;10.48;;;19.10;99.90;;;;;;5074490;28;20028;-65
2022/07/21 00:08:00;;;;;;;15.88;9.80;;;19.10;99.90;;;;;;5074231;28;20021;-65
2022/07/21 00:10:26;;;;;;;15.48;10.40;;;19.00;99.90;;;;;;5074537;28;20039;-64
2022/07/21 00:12:54;;;;;;;17.05;10.13;;;18.90;99.90;;;;;;5073995;28;20045;-64
2022/07/21 00:15:22;;;;;;;14.30;9.88;;;19.00;99.90;;;;;;5074070;28;20041;-64
2022/07/21 00:17:48;;;;;;;14.90;9.85;;;19.00;99.90;;;;;;5074104;28;20554;-64
2022/07/21 00:20:16;;;;;;;12.65;8.75;;;19.00;99.90;;;;;;5074288;28;20021;-64
2022/07/21 00:22:42;;;;;;;15.18;9.30;;;18.90;99.90;;;;;;5074054;28;20046;-67
2022/07/21 00:25:09;;;;;;;14.65;9.05;;;18.70;99.90;;;;;;5074016;28;20439;-67
2022/07/21 00:27:35;;;;;;;11.23;9.77;;;18.70;99.90;;;;;;5073970;28;20075;-67
2022/07/21 00:30:03;;;;;;;15.48;9.95;;;18.80;99.90;;;;;;5073858;28;20048;-67
2022/07/21 00:32:29;;;;;;;15.38;9.30;;;18.90;99.90;;;;;;5074058;28;20043;-67
2022/07/21 00:34:54;;;;;;;14.15;9.38;;;19.00;99.90;;;;;;5073798;28;20024;-66
2022/07/21 00:37:23;;;;;;;13.45;8.48;;;18.80;99.90;;;;;;5073825;28;20032;-66
2022/07/21 00:39:52;;;;;;;14.95;9.15;;;18.70;99.90;;;;;;5073829;28;20098;-67
2022/07/21 00:42:29;;;;;;;17.67;8.85;;;18.60;99.90;;;;;;5073687;28;20020;-67
2022/07/21 00:44:56;;;;;;;14.48;8.75;;;18.70;99.90;;;;;;5073649;28;20071;-67
2022/07/21 00:47:23;;;;;;;12.15;9.05;;;18.70;99.90;;;;;;5056457;28;20035;-67
2022/07/21 00:49:49;;;;;;;10.88;8.90;;;18.60;99.90;;;;;;5073933;28;20479;-66
2022/07/21 00:52:16;;;;;;;19.33;9.18;;;18.50;99.90;;;;;;5073433;28;20082;-66
2022/07/21 00:54:43;;;;;;;13.48;8.93;;;18.60;99.90;;;;;;5073494;28;20427;-66
2022/07/21 00:57:09;;;;;;;13.40;8.68;;;18.70;99.90;;;;;;5073430;28;20028;-66
2022/07/21 00:59:35;;;;;;;14.40;8.85;;;18.70;99.90;;;;;;5073427;28;20024;-66
2022/07/21 01:02:02;;;;;;;12.27;8.95;;;18.60;99.90;;;;;;5073333;28;20037;-66
2022/07/21 01:04:27;;;;;;;13.10;9.15;;;18.60;99.90;;;;;;5055448;28;20384;-67
2022/07/21 01:06:54;;;;;;;12.25;8.60;;;18.70;99.90;;;;;;5073981;28;20013;-66
2022/07/21 01:09:21;;;;;;;14.05;9.35;;;18.70;99.90;;;;;;5074100;28;20480;-67
2022/07/21 01:11:47;;;;;;;13.35;9.43;;;18.60;99.90;;;;;;5072954;28;20028;-66
2022/07/21 01:14:13;;;;;;;11.20;9.10;;;18.60;99.90;;;;;;5073291;28;20036;-66
2022/07/21 01:16:41;;;;;;;9.95;8.68;;;18.80;99.90;;;;;;5073209;28;20546;-66
2022/07/21 01:19:07;;;;;;;10.45;8.63;;;18.70;99.90;;;;;;5073668;28;20017;-67
2022/07/21 01:21:35;;;;;;;12.55;9.27;;;18.70;99.90;;;;;;5073320;28;20028;-66
2022/07/21 01:24:02;;;;;;;16.52;9.10;;;18.80;99.90;;;;;;5073052;28;20082;-67
2022/07/21 01:26:29;;;;;;;13.35;8.48;;;18.80;99.90;;;;;;5073030;28;20020;-67
2022/07/21 01:28:56;;;;;;;15.48;8.63;;;18.70;99.90;;;;;;5055202;28;20059;-66
2022/07/21 01:31:22;;;;;;;18.35;8.93;;;18.70;99.90;;;;;;5073565;28;20039;-66
2022/07/21 01:33:49;;;;;;;12.48;9.35;;;18.60;99.90;;;;;;5073294;28;20179;-66
2022/07/21 01:36:15;;;;;;;13.73;9.52;;;18.70;99.90;;;;;;5073763;28;20029;-65
2022/07/21 01:41:34;;;;;;;14.27;9.40;;;18.80;99.90;;;;;;5048388;28;20029;-67
2022/07/21 01:44:08;;;;;;;15.32;8.82;;;18.70;99.90;;;;;;5072660;28;20032;-66
2022/07/21 01:46:39;;;;;;;13.55;9.68;;;18.60;99.90;;;;;;5071747;28;20061;-67
2022/07/21 01:49:06;;;;;;;14.10;9.25;;;18.50;99.90;;;;;;5066509;28;20032;-66
2022/07/21 01:51:33;;;;;;;17.73;8.95;;;18.70;99.90;;;;;;5072489;28;20029;-66
2022/07/21 01:53:59;;;;;;;13.23;9.32;;;18.50;99.90;;;;;;5064497;28;20166;-67
2022/07/21 01:56:26;;;;;;;14.35;8.80;;;18.60;99.90;;;;;;5066693;28;20028;-66
2022/07/21 01:58:54;;;;;;;12.23;9.60;;;18.50;99.90;;;;;;5072831;28;20035;-67
2022/07/21 02:01:22;;;;;;;12.52;9.93;;;18.40;99.90;;;;;;5073369;28;20417;-66
2022/07/21 02:03:48;;;;;;;12.90;8.77;;;18.50;99.90;;;;;;5072597;28;20112;-65
2022/07/21 02:06:14;;;;;;;11.63;9.30;;;18.50;99.90;;;;;;5072515;28;20024;-66
2022/07/21 02:08:42;;;;;;;14.48;9.75;;;18.30;99.90;;;;;;5072732;28;20025;-66
2022/07/21 02:11:08;;;;;;;13.45;10.20;;;18.20;99.90;;;;;;5072382;28;20032;-66
2022/07/21 02:13:34;;;;;;;13.82;10.02;;;18.30;99.90;;;;;;5075247;28;20526;-66
2022/07/21 02:16:01;;;;;;;15.15;9.90;;;18.20;99.90;;;;;;5076867;28;20020;-65
2022/07/21 02:18:26;;;;;;;18.20;10.18;;;18.30;99.90;;;;;;5048536;28;20036;-66
2022/07/21 02:20:54;;;;;;;16.23;10.15;;;18.20;99.90;;;;;;5076598;28;20025;-66
2022/07/21 02:23:20;;;;;;;16.35;10.13;;;18.20;99.90;;;;;;5076614;28;20031;-67
2022/07/21 02:25:47;;;;;;;14.85;8.95;;;18.30;99.90;;;;;;5075890;28;20042;-65
2022/07/21 02:28:13;;;;;;;18.13;9.45;;;18.30;99.90;;;;;;5076247;28;20033;-66
2022/07/21 02:30:39;;;;;;;17.38;9.23;;;18.30;99.90;;;;;;5076414;28;20036;-66
2022/07/21 02:33:05;;;;;;;17.48;9.35;;;18.20;99.90;;;;;;5076237;28;20029;-66
2022/07/21 02:35:32;;;;;;;17.77;9.60;;;18.10;99.90;;;;;;5076283;28;20064;-66
2022/07/21 02:37:57;;;;;;;15.80;9.50;;;18.20;99.90;;;;;;5076209;28;20017;-66
2022/07/21 02:40:23;;;;;;;14.55;8.75;;;18.10;99.90;;;;;;5075702;28;20074;-66
2022/07/21 02:42:49;;;;;;;17.67;8.82;;;18.20;99.90;;;;;;5076121;28;20028;-66
2022/07/21 02:45:15;;;;;;;13.52;8.23;;;18.30;99.90;;;;;;5076147;28;20119;-66
2022/07/21 02:47:54;;;;;;;13.15;7.97;;;18.30;99.90;;;;;;5076179;28;20506;-66
2022/07/21 02:50:22;;;;;;;14.90;8.30;;;18.20;99.90;;;;;;5075798;28;20033;-67
2022/07/21 02:52:48;;;;;;;14.07;8.25;;;18.30;99.90;;;;;;5075725;28;20425;-66
2022/07/21 02:55:14;;;;;;;15.77;9.15;;;18.30;99.90;;;;;;5075594;28;20098;-67
2022/07/21 02:57:40;;;;;;;15.52;8.25;;;18.30;99.90;;;;;;5057952;28;20389;-66
2022/07/21 03:00:08;;;;;;;17.80;8.20;;;18.10;99.90;;;;;;5075747;28;20017;-67
2022/07/21 03:02:34;;;;;;;15.35;8.55;;;18.20;99.90;;;;;;5075708;28;20021;-66
2022/07/21 03:05:00;;;;;;;23.45;8.60;;;18.30;99.90;;;;;;5075869;28;20024;-66
2022/07/21 03:07:26;;;;;;;16.95;8.23;;;18.20;99.90;;;;;;5075642;28;20086;-66
2022/07/21 03:09:52;;;;;;;14.40;8.80;;;18.40;99.90;;;;;;5075671;28;20021;-68
2022/07/21 03:12:18;;;;;;;11.75;8.38;;;18.30;99.90;;;;;;5075588;28;20486;-66
2022/07/21 03:14:43;;;;;;;16.00;8.32;;;18.20;99.90;;;;;;5075611;28;20090;-67
2022/07/21 03:17:09;;;;;;;18.02;9.35;;;18.20;99.90;;;;;;5075546;28;20025;-66
2022/07/21 03:19:36;;;;;;;15.15;8.50;;;18.20;99.90;;;;;;5075491;28;20024;-66
2022/07/21 03:22:02;;;;;;;14.98;8.88;;;18.10;99.90;;;;;;5075128;28;20464;-66
2022/07/21 03:24:29;;;;;;;17.05;8.60;;;18.10;99.90;;;;;;5122289;22;20074;-63
2022/07/21 03:26:55;;;;;;;17.45;8.98;;;18.00;99.90;;;;;;5115838;28;20023;-76
2022/07/21 03:29:22;;;;;;;18.13;9.27;;;18.10;99.90;;;;;;5115889;28;20028;-72
2022/07/21 03:31:47;;;;;;;16.52;7.85;;;18.20;99.90;;;;;;5115684;28;20076;-65
2022/07/21 03:34:13;;;;;;;17.98;8.55;;;18.20;99.90;;;;;;5115809;28;20379;-63
2022/07/21 03:36:39;;;;;;;16.40;9.48;;;18.10;99.90;;;;;;5115473;28;20525;-74
2022/07/21 03:39:04;;;;;;;17.90;9.00;;;18.10;99.90;;;;;;5115709;28;20016;-76
2022/07/21 03:41:30;;;;;;;17.85;7.82;;;18.20;99.90;;;;;;5115432;28;20102;-61
2022/07/21 03:43:56;;;;;;;16.02;8.98;;;18.40;99.90;;;;;;5115455;28;20031;-75
2022/07/21 03:46:22;;;;;;;14.25;8.30;;;18.60;99.90;;;;;;5115450;28;20035;-74
2022/07/21 03:48:48;;;;;;;25.95;9.30;;;18.60;99.90;;;;;;5115717;28;20023;-73
2022/07/21 03:51:14;;;;;;;16.90;9.07;;;18.50;99.90;;;;;;5114950;28;20464;-74
2022/07/21 03:53:40;;;;;;;16.05;8.57;;;18.50;99.90;;;;;;5096960;28;20483;-74
2022/07/21 03:56:06;;;;;;;17.27;8.32;;;18.50;99.90;;;;;;5096870;28;20024;-64
2022/07/21 03:58:32;;;;;;;17.58;9.13;;;18.50;99.90;;;;;;5115532;28;20032;-71
2022/07/21 04:00:57;;;;;;;16.42;8.50;;;18.50;99.90;;;;;;5096683;28;20031;-74
2022/07/21 04:03:23;;;;;;;15.77;8.63;;;18.50;99.90;;;;;;5115094;28;20028;-73
2022/07/21 04:05:49;;;;;;;14.13;8.05;;;18.50;99.90;;;;;;5114650;28;20019;-63
2022/07/21 04:08:15;;;;;;;20.05;8.98;;;18.40;99.90;;;;;;5114934;28;20027;-64
2022/07/21 04:10:42;;;;;;;19.27;9.60;;;18.50;99.90;;;;;;5114614;28;20516;-64
2022/07/21 04:13:13;;;;;;;18.60;8.15;;;18.60;99.90;;;;;;5114259;28;20031;-67
2022/07/21 04:15:39;;;;;;;15.35;9.70;;;18.40;99.90;;;;;;5115657;28;20027;-75
2022/07/21 04:18:06;;;;;;;20.13;9.00;;;18.40;99.90;;;;;;5096258;28;20444;-72
2022/07/21 04:20:32;;;;;;;19.27;9.20;;;18.50;99.90;;;;;;5114578;28;20110;-63
2022/07/21 04:22:58;;;;;;;27.23;10.35;;;18.40;99.90;;;;;;5114336;28;20031;-61
2022/07/21 04:25:24;;;;;;;20.90;9.95;;;18.40;99.90;;;;;;5115037;28;20019;-63
2022/07/21 04:27:51;;;;;;;19.40;10.60;;;18.40;99.90;;;;;;5114638;28;20128;-61
2022/07/21 04:30:22;;;;;;;29.42;11.32;;;18.50;99.90;;;;;;5111011;28;20024;-67
2022/07/21 04:32:48;;;;;;;22.60;11.80;;;18.50;99.90;;;;;;5112268;28;20044;-63
2022/07/21 04:35:14;;;;;;;22.95;10.77;;;18.50;99.90;;;;;;5099396;28;20111;-76
2022/07/21 04:37:40;;;;;;;23.23;11.70;;;18.70;99.90;;;;;;5114702;28;20028;-67
2022/07/21 04:40:09;;;;;;;18.65;11.35;;;18.80;99.90;;;;;;5096544;28;20361;-75
2022/07/21 04:42:35;;;;;;;17.95;12.60;;;18.90;99.90;;;;;;5114340;28;20055;-75
2022/07/21 04:45:02;;;;;;;21.48;12.43;;;19.00;99.90;;;;;;5095950;28;20456;-75
2022/07/21 04:47:28;;;;;;;24.67;13.63;;;19.00;99.90;;;;;;5096144;28;20028;-75
2022/07/21 04:49:54;;;;;;;23.17;13.32;;;18.90;99.90;;;;;;5113811;28;20092;-75
2022/07/21 04:52:20;;;;;;;24.65;13.30;;;18.70;99.90;;;;;;5113935;28;20043;-75
2022/07/21 04:54:46;;;;;;;23.65;13.57;;;18.70;99.90;;;;;;5114308;28;20031;-63
2022/07/21 04:57:12;;;;;;;28.67;15.48;;;18.60;99.90;;;;;;5113764;28;20482;-74
2022/07/21 04:59:38;;;;;;;29.15;16.42;;;18.40;99.90;;;;;;5114199;28;20036;-72
2022/07/21 05:02:05;;;;;;;32.80;16.55;;;18.50;99.90;;;;;;5113938;28;20106;-74
2022/07/21 05:04:31;;;;;;;33.47;18.33;;;18.60;99.90;;;;;;5113550;28;20047;-74
2022/07/21 05:06:58;;;;;;;31.25;17.80;;;18.60;99.90;;;;;;5113826;28;20032;-62
2022/07/21 05:09:23;;;;;;;34.75;17.95;;;18.50;99.90;;;;;;5113757;28;20050;-74
2022/07/21 05:11:49;;;;;;;34.92;17.92;;;18.40;99.90;;;;;;5095789;28;20467;-74
2022/07/21 05:14:15;;;;;;;38.28;19.35;;;18.40;99.90;;;;;;5113551;28;20027;-75
2022/07/21 05:16:42;;;;;;;29.05;19.05;;;18.30;99.90;;;;;;5113834;28;20039;-74
2022/07/21 05:19:08;;;;;;;29.45;18.98;;;18.30;99.90;;;;;;5113352;28;20084;-63
2022/07/21 05:21:34;;;;;;;29.90;19.42;;;18.30;99.90;;;;;;5113783;28;20468;-69
2022/07/21 05:24:00;;;;;;;36.67;20.30;;;18.30;99.90;;;;;;5113636;28;20045;-73
2022/07/21 05:26:25;;;;;;;33.13;21.45;;;18.30;99.90;;;;;;5113668;28;20024;-74
2022/07/21 05:28:51;;;;;;;29.73;20.17;;;18.20;99.90;;;;;;5113630;28;20032;-61
2022/07/21 05:31:17;;;;;;;36.88;21.80;;;18.20;99.90;;;;;;5113483;28;20024;-74
2022/07/21 05:33:43;;;;;;;33.22;22.20;;;18.20;99.90;;;;;;5113038;28;20059;-74
2022/07/21 05:36:08;;;;;;;32.08;22.70;;;18.20;99.90;;;;;;5113396;28;20045;-70
2022/07/21 05:38:34;;;;;;;35.05;23.00;;;18.10;99.90;;;;;;5113496;28;20466;-63
2022/07/21 05:41:02;;;;;;;35.08;24.45;;;18.30;99.90;;;;;;5095239;28;20110;-73
2022/07/21 05:43:29;;;;;;;37.30;25.10;;;18.20;99.90;;;;;;5113025;28;20028;-73
2022/07/21 05:45:54;;;;;;;30.30;22.00;;;18.20;99.90;;;;;;5113390;28;20026;-61
2022/07/21 05:48:20;;;;;;;33.75;23.13;;;18.10;99.90;;;;;;5112208;28;20035;-77
2022/07/21 05:50:46;;;;;;;36.80;23.25;;;18.20;99.90;;;;;;5092513;28;20016;-61
2022/07/21 05:53:12;;;;;;;31.83;21.80;;;18.10;99.90;;;;;;5093240;28;20569;-72
2022/07/21 05:55:37;;;;;;;29.27;22.10;;;18.10;99.90;;;;;;5094684;28;20095;-74
2022/07/21 05:58:03;;;;;;;34.20;23.20;;;18.20;99.90;;;;;;5111826;28;20035;-75
2022/07/21 06:00:29;;;;;;;29.60;23.48;;;18.40;99.90;;;;;;5112463;28;20024;-63
2022/07/21 06:02:55;;;;;;;30.52;21.92;;;18.50;99.90;;;;;;5109832;28;20016;-64
2022/07/21 06:05:21;;;;;;;26.92;20.20;;;18.40;99.90;;;;;;5112293;28;20034;-61
2022/07/21 06:07:48;;;;;;;26.75;21.48;;;18.40;99.90;;;;;;5094234;28;20073;-63
2022/07/21 06:10:14;;;;;;;30.38;20.70;;;18.30;99.90;;;;;;5112485;28;20027;-64
2022/07/21 06:12:40;;;;;;;26.27;21.00;;;18.20;99.90;;;;;;5112044;28;20046;-62
2022/07/21 06:15:07;;;;;;;26.90;21.48;;;18.20;99.90;;;;;;5112225;28;20020;-74
2022/07/21 06:17:39;;;;;;;27.65;20.25;;;18.30;99.90;;;;;;5111662;28;20370;-62
2022/07/21 06:20:07;;;;;;;25.08;20.88;;;18.20;99.90;;;;;;5102399;28;20024;-73
2022/07/21 06:22:33;;;;;;;23.45;18.35;;;18.60;99.90;;;;;;5085960;28;20027;-71
2022/07/21 06:24:58;;;;;;;28.42;20.33;;;18.30;99.90;;;;;;5091537;28;20036;-72
2022/07/21 06:27:24;;;;;;;23.38;18.92;;;18.60;99.90;;;;;;5095827;28;20016;-64
2022/07/21 06:29:50;;;;;;;27.20;20.95;;;18.70;99.90;;;;;;5108157;27;20079;-62
2022/07/21 06:32:15;;;;;;;24.15;18.63;;;18.70;99.90;;;;;;5098608;28;20224;-61
2022/07/21 06:34:41;;;;;;;23.77;19.27;;;18.40;99.90;;;;;;5074504;28;20039;-62
2022/07/21 06:37:07;;;;;;;31.38;21.55;;;18.50;99.90;;;;;;5077311;28;20468;-73
2022/07/21 06:39:33;;;;;;;30.00;22.90;;;18.50;99.90;;;;;;5095925;28;20016;-63
2022/07/21 06:41:58;;;;;;;29.55;23.15;;;18.60;99.90;;;;;;5066306;28;20016;-64
2022/07/21 06:44:27;;;;;;;33.20;24.23;;;18.80;99.90;;;;;;5091517;28;20016;-71
2022/07/21 06:46:52;;;;;;;37.63;26.90;;;18.90;99.90;;;;;;5102647;28;20062;-74
2022/07/21 06:49:18;;;;;;;41.38;28.88;;;18.90;99.90;;;;;;5085576;28;20019;-74
2022/07/21 06:51:44;;;;;;;43.03;30.65;;;18.80;99.90;;;;;;5094169;28;20387;-68
2022/07/21 06:54:10;;;;;;;46.38;32.70;;;19.20;99.90;;;;;;5092258;28;20047;-63
2022/07/21 06:56:35;;;;;;;53.55;33.33;;;19.20;99.90;;;;;;5102525;28;20496;-66
2022/07/21 06:59:01;;;;;;;47.28;33.88;;;19.10;99.90;;;;;;5113758;28;20024;-64
2022/07/21 07:01:27;;;;;;;46.42;33.00;;;18.80;99.90;;;;;;5114734;28;20375;-66
2022/07/21 07:03:53;;;;;;;49.20;35.17;;;18.70;99.90;;;;;;5083020;28;20384;-63
2022/07/21 07:06:18;;;;;;;46.08;35.15;;;18.50;99.90;;;;;;5094545;28;20024;-74
2022/07/21 07:08:44;;;;;;;44.30;31.42;;;18.40;99.90;;;;;;5104205;28;20380;-73
2022/07/21 07:11:10;;;;;;;41.53;29.70;;;18.40;99.90;;;;;;5094009;28;20568;-72
2022/07/21 07:13:35;;;;;;;40.38;26.55;;;18.40;99.90;;;;;;5095269;28;20088;-72
2022/07/21 07:16:01;;;;;;;38.67;27.38;;;18.30;99.90;;;;;;5092816;28;20036;-71
2022/07/21 07:18:27;;;;;;;38.58;25.50;;;18.20;99.90;;;;;;5097278;28;20046;-64
2022/07/21 07:20:53;;;;;;;39.22;24.27;;;18.20;99.90;;;;;;5094594;28;20028;-73
2022/07/21 07:23:19;;;;;;;44.38;27.17;;;18.20;99.90;;;;;;5095421;28;20036;-73
2022/07/21 07:25:45;;;;;;;46.28;26.90;;;18.20;99.90;;;;;;5095197;28;20024;-65
2022/07/21 07:28:11;;;;;;;40.80;26.95;;;18.10;99.90;;;;;;5095091;28;20365;-72
2022/07/21 07:30:37;;;;;;;46.28;28.27;;;18.10;99.90;;;;;;5076614;28;20028;-64
2022/07/21 07:33:02;;;;;;;45.25;28.40;;;18.10;99.90;;;;;;5095070;28;20035;-72
2022/07/21 07:35:28;;;;;;;43.25;28.55;;;18.30;99.90;;;;;;5077159;28;20099;-72
2022/07/21 07:37:54;;;;;;;45.78;27.92;;;18.20;99.90;;;;;;5105543;28;20440;-65
2022/07/21 07:40:22;;;;;;;50.25;28.85;;;18.20;99.90;;;;;;5095051;28;20036;-68
2022/07/21 07:42:48;;;;;;;44.33;28.80;;;18.30;99.90;;;;;;5094996;28;20035;-62
2022/07/21 07:45:14;;;;;;;45.90;28.58;;;18.30;99.90;;;;;;5094522;28;20088;-64
2022/07/21 07:47:41;;;;;;;43.97;28.88;;;18.20;99.90;;;;;;5095254;28;20020;-67
2022/07/21 07:50:08;;;;;;;43.50;27.45;;;18.30;99.90;;;;;;5094935;28;20030;-66
2022/07/21 07:52:35;;;;;;;37.45;25.38;;;18.20;99.90;;;;;;5094811;28;20531;-63
2022/07/21 07:55:04;;;;;;;47.85;27.98;;;18.20;99.90;;;;;;5094807;28;20035;-71
2022/07/21 07:57:30;;;;;;;49.35;27.13;;;18.20;99.90;;;;;;5112778;28;20110;-62
2022/07/21 07:59:56;;;;;;;41.03;24.70;;;18.40;99.90;;;;;;5115527;28;20125;-61
2022/07/21 08:02:21;;;;;;;45.60;25.75;;;18.30;99.90;;;;;;5114879;28;20372;-62
2022/07/21 08:04:47;;;;;;;46.08;23.65;;;18.50;99.90;;;;;;5115328;28;20019;-64
2022/07/21 08:07:13;;;;;;;32.33;21.73;;;18.50;99.90;;;;;;5114980;28;20480;-63
2022/07/21 08:09:40;;;;;;;34.67;21.70;;;18.40;99.90;;;;;;5068170;28;20098;-62
2022/07/21 08:12:06;;;;;;;34.58;20.48;;;18.40;99.90;;;;;;5114716;28;20467;-72
2022/07/21 08:14:32;;;;;;;33.80;21.80;;;18.40;99.90;;;;;;5115028;28;20085;-67
2022/07/21 08:16:58;;;;;;;36.15;22.25;;;18.40;99.90;;;;;;5114884;28;20016;-62
2022/07/21 08:19:25;;;;;;;39.13;22.20;;;18.70;99.90;;;;;;5114984;28;20449;-62
2022/07/21 08:21:50;;;;;;;27.15;19.92;;;18.80;99.90;;;;;;5114669;28;20015;-64
2022/07/21 08:24:16;;;;;;;33.55;21.23;;;18.60;99.90;;;;;;5114748;28;20032;-62
2022/07/21 08:26:42;;;;;;;38.30;20.88;;;18.70;99.90;;;;;;5114826;28;20023;-71
2022/07/21 08:29:08;;;;;;;33.45;20.05;;;18.70;99.90;;;;;;5096508;28;20024;-62
2022/07/21 08:31:33;;;;;;;37.70;20.17;;;18.70;99.90;;;;;;5114394;28;20031;-73
2022/07/21 08:33:59;;;;;;;40.28;20.92;;;18.70;99.90;;;;;;5114525;28;20426;-63
2022/07/21 08:36:25;;;;;;;32.38;18.17;;;18.80;99.90;;;;;;5114414;28;20023;-71
2022/07/21 08:38:51;;;;;;;31.33;19.15;;;18.60;99.90;;;;;;5114697;28;20428;-64
2022/07/21 08:41:16;;;;;;;38.08;20.63;;;18.70;99.90;;;;;;5113933;28;20051;-72
2022/07/21 08:43:43;;;;;;;34.10;19.55;;;18.90;99.90;;;;;;5114279;28;20012;-71
2022/07/21 08:46:09;;;;;;;33.30;20.45;;;18.80;99.90;;;;;;5114370;28;20076;-70
2022/07/21 08:48:36;;;;;;;31.35;18.25;;;18.90;99.90;;;;;;5114127;28;20031;-66
2022/07/21 08:51:02;;;;;;;28.10;17.10;;;18.60;99.90;;;;;;5114318;28;20486;-68
2022/07/21 08:53:28;;;;;;;30.48;14.65;;;18.60;99.90;;;;;;5114219;28;20168;-71
2022/07/21 08:55:55;;;;;;;24.20;13.55;;;18.40;99.90;;;;;;5113875;28;20470;-71
2022/07/21 08:58:21;;;;;;;24.27;14.20;;;18.40;99.90;;;;;;5114115;28;20099;-68
2022/07/21 09:00:48;;;;;;;18.40;11.25;;;18.40;99.90;;;;;;5114469;28;20107;-71
2022/07/21 09:03:14;;;;;;;15.38;11.23;;;18.50;99.90;;;;;;5110734;28;20031;-65
2022/07/21 09:05:41;;;;;;;13.20;9.10;;;18.60;99.90;;;;;;5109107;28;20024;-62
2022/07/21 09:08:07;;;;;;;17.08;11.23;;;18.50;99.90;;;;;;5113892;28;20039;-69
2022/07/21 09:10:34;;;;;;;14.93;9.85;;;18.80;99.90;;;;;;5113995;28;20027;-71
2022/07/21 09:13:06;;;;;;;15.48;9.63;;;19.00;99.90;;;;;;5113674;28;20031;-72
2022/07/21 09:15:33;;;;;;;19.85;9.45;;;19.00;99.90;;;;;;5113954;28;20475;-62
2022/07/21 09:18:11;;;;;;;12.75;8.52;;;19.20;99.90;;;;;;5095347;28;20051;-64
2022/07/21 09:20:38;;;;;;;19.40;9.82;;;19.20;99.90;;;;;;5113789;28;20468;-64
2022/07/21 09:23:06;;;;;;;15.75;9.15;;;19.10;99.90;;;;;;5113346;28;20055;-72
2022/07/21 09:25:34;;;;;;;26.45;9.52;;;18.80;99.90;;;;;;5113562;28;20476;-63
2022/07/21 09:28:07;;;;;;;17.00;10.73;;;19.00;99.90;;;;;;5113425;28;20019;-71
2022/07/21 09:30:51;;;;;;;18.42;10.75;;;18.90;99.90;;;;;;5113530;28;20032;-66
2022/07/21 09:33:32;;;;;;;15.80;11.07;;;18.70;99.90;;;;;;5113578;28;20074;-66
2022/07/21 09:36:00;;;;;;;20.23;11.55;;;18.60;99.90;;;;;;5113689;28;20118;-69
2022/07/21 09:38:30;;;;;;;22.67;12.52;;;18.60;99.90;;;;;;5113422;28;20011;-73
2022/07/21 09:41:03;;;;;;;20.30;11.52;;;18.90;99.90;;;;;;5095100;28;20456;-63
2022/07/21 09:43:44;;;;;;;20.95;10.70;;;18.80;99.90;;;;;;5113040;28;20073;-61
2022/07/21 09:46:15;;;;;;;21.45;10.52;;;18.60;99.90;;;;;;5113462;28;20058;-64
2022/07/21 09:48:43;;;;;;;16.40;10.13;;;18.80;99.90;;;;;;5113307;28;20487;-61
2022/07/21 09:51:43;;;;;;;28.30;11.63;;;18.70;99.90;;;;;;5113478;28;20057;-68
2022/07/21 09:54:13;;;;;;;23.38;9.45;;;18.80;99.90;;;;;;5058965;28;20051;-70
2022/07/21 09:56:42;;;;;;;23.08;10.80;;;18.60;99.90;;;;;;5113242;28;20055;-73
2022/07/21 09:59:10;;;;;;;17.60;9.00;;;18.60;99.90;;;;;;5115017;28;20495;-64
2022/07/21 10:01:37;;;;;;;18.38;7.97;;;18.50;99.90;;;;;;5115136;28;20466;-73
2022/07/21 10:04:04;;;;;;;18.35;9.38;;;18.20;99.90;;;;;;5113231;28;20395;-69
2022/07/21 10:06:35;;;;;;;15.23;9.70;;;18.30;99.90;;;;;;5113335;28;20126;-72
2022/07/21 10:09:04;;;;;;;19.75;10.18;;;18.50;99.90;;;;;;5112785;28;20027;-62
2022/07/21 10:11:30;;;;;;;16.27;8.95;;;18.40;99.90;;;;;;5113257;28;20031;-74
2022/07/21 10:13:56;;;;;;;18.63;9.13;;;18.60;99.90;;;;;;5113061;28;20038;-67
2022/07/21 10:16:22;;;;;;;19.45;8.82;;;18.60;99.90;;;;;;5113301;28;20032;-71
2022/07/21 10:18:58;;;;;;;19.42;9.27;;;18.70;99.90;;;;;;5113076;28;20387;-70
2022/07/21 10:22:15;;;;;;;17.50;8.65;;;18.80;99.90;;;;;;5085300;28;20031;-64
2022/07/21 10:24:41;;;;;;;14.93;8.02;;;18.80;99.90;;;;;;5094183;28;20100;-73
2022/07/21 10:27:12;;;;;;;17.92;9.00;;;18.60;99.90;;;;;;5095095;28;20036;-75
2022/07/21 10:30:00;;;;;;;17.87;8.63;;;18.70;99.90;;;;;;5112731;28;20027;-65
2022/07/21 10:32:32;;;;;;;19.52;9.30;;;18.50;99.90;;;;;;5113043;28;20031;-63
2022/07/21 10:34:59;;;;;;;;;;;18.30;99.90;;;;;;5116979;28;20024;-72
2022/07/21 10:37:39;;;;;;;12.43;8.70;;;18.50;99.90;;;;;;5116553;28;19915;-71
2022/07/21 10:40:20;;;;;;;15.32;9.50;;;18.40;99.90;;;;;;5098361;28;20107;-73
2022/07/21 10:43:06;;;;;;;16.52;8.10;;;18.40;99.90;;;;;;5116773;28;20023;-73
2022/07/21 10:45:36;;;;;;;18.67;7.72;;;18.40;99.90;;;;;;5064880;28;20543;-68
2022/07/21 10:48:04;;;;;;;20.80;7.97;;;18.40;99.90;;;;;;5116765;28;20050;-70
2022/07/21 10:50:33;;;;;;;16.33;6.85;;;18.50;99.90;;;;;;5116634;28;20020;-74
2022/07/21 10:53:02;;;;;;;13.05;6.65;;;18.60;99.90;;;;;;5116446;28;20479;-63
2022/07/21 10:55:35;;;;;;;12.55;7.10;;;18.60;99.90;;;;;;5116217;28;20020;-71
2022/07/21 10:58:14;;;;;;;17.15;7.70;;;18.50;99.90;;;;;;5116395;28;20487;-71
2022/07/21 11:00:58;;;;;;;14.32;7.80;;;18.50;99.90;;;;;;5116286;28;20050;-72
2022/07/21 11:03:29;;;;;;;14.48;6.97;;;18.50;99.90;;;;;;5116374;28;20375;-68
2022/07/21 11:06:23;;;;;;;17.25;8.60;;;18.40;99.90;;;;;;5116114;28;20019;-73
2022/07/21 11:09:04;;;;;;;15.80;7.85;;;18.40;99.90;;;;;;5113262;28;20097;-65
2022/07/21 11:11:35;;;;;;;15.02;8.25;;;18.60;99.90;;;;;;5090357;28;20048;-67
2022/07/21 11:14:18;;;;;;;15.63;7.53;;;18.60;99.90;;;;;;5116376;28;20111;-62
2022/07/21 11:16:52;;;;;;;14.02;7.63;;;18.40;99.90;;;;;;5092450;28;20028;-72
2022/07/21 11:19:40;;;;;;;10.88;6.13;;;18.30;99.90;;;;;;5115925;28;20032;-65
2022/07/21 11:22:17;;;;;;;11.88;5.35;;;18.40;99.90;;;;;;5115735;28;20055;-63
2022/07/21 11:24:54;;;;;;;13.77;6.57;;;18.30;99.90;;;;;;5115771;28;20093;-65
2022/07/21 11:27:23;;;;;;;15.00;5.80;;;18.40;99.90;;;;;;5115914;28;20031;-74
2022/07/21 11:29:51;;;;;;;16.33;5.97;;;18.30;99.90;;;;;;5097507;28;20022;-73
2022/07/21 11:32:18;;;;;;;10.88;4.90;;;18.30;99.90;;;;;;5115896;28;20035;-73
2022/07/21 11:34:47;;;;;;;11.93;5.28;;;18.30;99.90;;;;;;5115928;28;20349;-66
2022/07/21 11:37:25;;;;;;;15.35;5.05;;;18.40;99.90;;;;;;5115425;28;20026;-62
2022/07/21 11:39:51;;;;;;;15.65;5.05;;;18.30;99.90;;;;;;5115436;28;20023;-68
2022/07/21 11:42:17;;;;;;;12.07;5.40;;;18.40;99.90;;;;;;5097211;28;20099;-70
2022/07/21 11:44:44;;;;;;;7.93;4.97;;;18.80;99.90;;;;;;5114474;28;20059;-72
2022/07/21 11:47:12;;;;;;;14.45;5.40;;;18.70;99.90;;;;;;5115446;28;20067;-65
2022/07/21 11:49:39;;;;;;;17.10;5.55;;;18.50;99.90;;;;;;5115331;28;20032;-65
2022/07/21 11:52:08;;;;;;;12.18;4.35;;;18.60;99.90;;;;;;5096778;28;20115;-64
2022/07/21 11:54:53;;;;;;;13.70;5.20;;;18.40;99.90;;;;;;5115591;28;20051;-74
2022/07/21 11:57:21;;;;;;;11.93;4.68;;;18.40;99.90;;;;;;5116306;28;20406;-63
2022/07/21 11:59:48;;;;;;;11.90;5.07;;;18.40;99.90;;;;;;5116858;28;20020;-63
2022/07/21 12:02:15;;;;;;;12.30;5.18;;;18.40;99.90;;;;;;5117932;28;20475;-74
2022/07/21 12:04:46;;;;;;;8.15;4.65;;;18.50;99.90;;;;;;5117197;28;20383;-63
2022/07/21 12:07:21;;;;;;;12.98;5.22;;;18.60;99.90;;;;;;5117267;28;20043;-65
2022/07/21 12:09:51;;;;;;;19.02;5.40;;;18.70;99.90;;;;;;5116766;28;20124;-63
2022/07/21 12:12:38;;;;;;;14.55;5.03;;;18.80;99.90;;;;;;5117127;28;20145;-67
2022/07/21 12:15:28;;;;;;;13.93;5.15;;;18.90;99.90;;;;;;5093705;28;20471;-64
2022/07/21 12:17:56;;;;;;;13.68;5.25;;;18.80;99.90;;;;;;5115495;28;20111;-67
2022/07/21 12:20:34;;;;;;;17.45;5.07;;;18.80;99.90;;;;;;5116023;28;20425;-65
2022/07/21 12:23:03;;;;;;;18.58;5.32;;;18.70;99.90;;;;;;5114617;28;20024;-65
2022/07/21 12:25:38;;;;;;;17.85;5.18;;;18.80;99.90;;;;;;5114988;28;20062;-64
2022/07/21 12:28:05;;;;;;;13.30;4.90;;;18.90;99.90;;;;;;5114834;28;20028;-65
2022/07/21 12:30:33;;;;;;;14.40;5.00;;;18.70;99.90;;;;;;5115083;28;20020;-62
2022/07/21 12:33:03;;;;;;;19.02;5.28;;;18.70;99.90;;;;;;5113942;28;20126;-66
2022/07/21 12:35:29;;;;;;;19.20;5.63;;;18.70;99.90;;;;;;5114671;28;20028;-73
2022/07/21 12:38:04;;;;;;;13.02;4.65;;;18.80;99.90;;;;;;5096385;28;20519;-63
2022/07/21 12:40:33;;;;;;;19.75;5.82;;;18.90;99.90;;;;;;5103539;28;20048;-70